sensor_id;sensor_type;location;lat;lon;timestamp;pressure;altitude;pressure_sealevel;temperature;humidity
65280;BME280;51878;55.748;48.742;2023-04-08T00:00:24;100476.25;;;-0.45;48.07
65280;BME280;51878;55.748;48.742;2023-04-08T00:05:26;100394.03;;;-0.95;48.38
65280;BME280;51878;55.748;48.742;2023-04-08T00:10:28;100443.94;;;-0.69;49.06
65280;BME280;51878;55.748;48.742;2023-04-08T00:15:31;100391.63;;;-1.00;49.49
65280;BME280;51878;55.748;48.742;2023-04-08T00:20:33;100401.25;;;-0.97;49.80
65280;BME280;51878;55.748;48.742;2023-04-08T00:25:35;100470.13;;;-0.61;49.81
65280;BME280;51878;55.748;48.742;2023-04-08T00:30:37;100339.97;;;-1.42;49.30
65280;BME280;51878;55.748;48.742;2023-04-08T00:35:39;100450.25;;;-0.86;49.72
65280;BME280;51878;55.748;48.742;2023-04-08T00:40:41;100485.94;;;-0.74;49.80
65280;BME280;51878;55.748;48.742;2023-04-08T00:45:43;100348.81;;;-1.57;49.85
65280;BME280;51878;55.748;48.742;2023-04-08T00:50:46;100455.34;;;-0.97;49.44
65280;BME280;51878;55.748;48.742;2023-04-08T00:55:48;100475.59;;;-0.94;49.92
65280;BME280;51878;55.748;48.742;2023-04-08T01:00:57;100473.53;;;-1.05;49.52
65280;BME280;51878;55.748;48.742;2023-04-08T01:11:16;100402.50;;;-1.67;50.86
65280;BME280;51878;55.748;48.742;2023-04-08T01:16:19;100411.34;;;-1.66;50.54
65280;BME280;51878;55.748;48.742;2023-04-08T01:21:23;100479.47;;;-1.32;51.45
65280;BME280;51878;55.748;48.742;2023-04-08T01:26:27;100478.69;;;-1.34;50.57
65280;BME280;51878;55.748;48.742;2023-04-08T01:31:30;100485.97;;;-1.21;50.01
65280;BME280;51878;55.748;48.742;2023-04-08T01:36:34;100361.16;;;-2.04;49.93
65280;BME280;51878;55.748;48.742;2023-04-08T01:41:38;100504.59;;;-1.21;50.62
65280;BME280;51878;55.748;48.742;2023-04-08T01:46:41;100479.81;;;-1.38;50.62
65280;BME280;51878;55.748;48.742;2023-04-08T01:51:45;100401.03;;;-1.88;51.15
65280;BME280;51878;55.748;48.742;2023-04-08T01:56:50;100476.28;;;-1.54;52.17
65280;BME280;51878;55.748;48.742;2023-04-08T02:01:53;100480.31;;;-1.63;52.60
65280;BME280;51878;55.748;48.742;2023-04-08T02:06:56;100423.03;;;-2.02;53.27
65280;BME280;51878;55.748;48.742;2023-04-08T02:11:58;100413.69;;;-2.09;54.00
65280;BME280;51878;55.748;48.742;2023-04-08T02:22:11;100459.75;;;-1.93;55.57
65280;BME280;51878;55.748;48.742;2023-04-08T02:27:16;100522.22;;;-1.68;56.05
65280;BME280;51878;55.748;48.742;2023-04-08T02:32:19;100511.19;;;-1.60;55.99
65280;BME280;51878;55.748;48.742;2023-04-08T02:37:24;100442.16;;;-1.95;55.85
65280;BME280;51878;55.748;48.742;2023-04-08T02:42:26;100501.84;;;-1.52;54.75
65280;BME280;51878;55.748;48.742;2023-04-08T02:47:28;100497.91;;;-1.44;54.82
65280;BME280;51878;55.748;48.742;2023-04-08T02:52:30;100526.13;;;-1.26;54.80
65280;BME280;51878;55.748;48.742;2023-04-08T02:57:32;100502.13;;;-1.40;54.60
65280;BME280;51878;55.748;48.742;2023-04-08T03:02:34;100350.50;;;-2.36;54.86
65280;BME280;51878;55.748;48.742;2023-04-08T03:07:37;100443.50;;;-1.71;54.78
65280;BME280;51878;55.748;48.742;2023-04-08T03:12:39;100517.81;;;-1.20;54.82
65280;BME280;51878;55.748;48.742;2023-04-08T03:17:41;100445.31;;;-1.55;53.85
65280;BME280;51878;55.748;48.742;2023-04-08T03:22:46;100463.19;;;-1.26;53.55
65280;BME280;51878;55.748;48.742;2023-04-08T03:27:48;100468.91;;;-1.17;52.77
65280;BME280;51878;55.748;48.742;2023-04-08T03:32:50;100521.84;;;-0.65;52.51
65280;BME280;51878;55.748;48.742;2023-04-08T03:37:52;100471.56;;;-0.86;51.61
65280;BME280;51878;55.748;48.742;2023-04-08T03:42:55;100336.97;;;-1.68;51.82
65280;BME280;51878;55.748;48.742;2023-04-08T03:47:57;100533.44;;;-0.36;50.67
65280;BME280;51878;55.748;48.742;2023-04-08T03:53:00;100526.91;;;-0.30;50.96
65280;BME280;51878;55.748;48.742;2023-04-08T03:58:02;100354.63;;;-1.19;49.98
65280;BME280;51878;55.748;48.742;2023-04-08T04:03:04;100460.75;;;-0.38;49.81
65280;BME280;51878;55.748;48.742;2023-04-08T04:08:07;100528.03;;;0.10;49.54
65280;BME280;51878;55.748;48.742;2023-04-08T04:13:10;100520.84;;;0.27;49.23
65280;BME280;51878;55.748;48.742;2023-04-08T04:18:12;100524.06;;;0.46;48.60
65280;BME280;51878;55.748;48.742;2023-04-08T04:23:14;100547.88;;;0.78;48.28
65280;BME280;51878;55.748;48.742;2023-04-08T04:28:16;100469.22;;;0.42;47.78
65280;BME280;51878;55.748;48.742;2023-04-08T04:33:18;100478.78;;;0.73;47.63
65280;BME280;51878;55.748;48.742;2023-04-08T04:38:20;100535.88;;;1.27;47.65
65280;BME280;51878;55.748;48.742;2023-04-08T04:43:22;100510.72;;;1.43;46.59
65280;BME280;51878;55.748;48.742;2023-04-08T04:48:25;100526.50;;;1.74;45.48
65280;BME280;51878;55.748;48.742;2023-04-08T04:53:27;100473.91;;;1.61;45.60
65280;BME280;51878;55.748;48.742;2023-04-08T04:58:29;100493.94;;;2.07;44.73
65280;BME280;51878;55.748;48.742;2023-04-08T05:03:32;100531.19;;;2.48;43.29
65280;BME280;51878;55.748;48.742;2023-04-08T05:08:36;100552.09;;;2.93;43.40
65280;BME280;51878;55.748;48.742;2023-04-08T05:13:41;100383.84;;;2.13;44.01
65280;BME280;51878;55.748;48.742;2023-04-08T05:18:46;100570.09;;;3.65;42.77
65280;BME280;51878;55.748;48.742;2023-04-08T05:23:59;100579.69;;;3.80;42.00
65280;BME280;51878;55.748;48.742;2023-04-08T05:29:01;100560.00;;;3.92;41.83
65280;BME280;51878;55.748;48.742;2023-04-08T05:34:03;100498.78;;;3.98;40.02
65280;BME280;51878;55.748;48.742;2023-04-08T05:39:09;100575.41;;;4.60;39.08
65280;BME280;51878;55.748;48.742;2023-04-08T05:44:13;100383.06;;;3.80;37.81
65280;BME280;51878;55.748;48.742;2023-04-08T05:49:16;100538.75;;;5.04;36.23
65280;BME280;51878;55.748;48.742;2023-04-08T05:54:18;100578.66;;;5.53;36.03
65280;BME280;51878;55.748;48.742;2023-04-08T05:59:20;100566.09;;;5.75;33.20
65280;BME280;51878;55.748;48.742;2023-04-08T06:04:22;100496.63;;;5.48;33.42
65280;BME280;51878;55.748;48.742;2023-04-08T06:09:28;100546.22;;;6.19;32.29
65280;BME280;51878;55.748;48.742;2023-04-08T06:14:44;100562.19;;;6.84;32.02
65280;BME280;51878;55.748;48.742;2023-04-08T06:19:47;100577.34;;;7.16;28.69
65280;BME280;51878;55.748;48.742;2023-04-08T06:24:49;100543.41;;;7.03;29.15
65280;BME280;51878;55.748;48.742;2023-04-08T06:30:01;100553.56;;;7.40;28.33
65280;BME280;51878;55.748;48.742;2023-04-08T06:35:05;100502.31;;;7.40;27.40
65280;BME280;51878;55.748;48.742;2023-04-08T06:40:08;100537.31;;;8.00;26.22
65280;BME280;51878;55.748;48.742;2023-04-08T06:45:11;100550.63;;;8.21;26.90
65280;BME280;51878;55.748;48.742;2023-04-08T06:50:13;100539.38;;;8.26;27.59
65280;BME280;51878;55.748;48.742;2023-04-08T06:55:15;100481.41;;;8.11;26.84
65280;BME280;51878;55.748;48.742;2023-04-08T07:00:17;100529.69;;;8.33;27.47
65280;BME280;51878;55.748;48.742;2023-04-08T07:05:19;100391.34;;;7.92;27.23
65280;BME280;51878;55.748;48.742;2023-04-08T07:10:27;100527.66;;;9.02;26.28
65280;BME280;51878;55.748;48.742;2023-04-08T07:15:30;100439.41;;;8.45;26.74
65280;BME280;51878;55.748;48.742;2023-04-08T07:20:35;100543.88;;;9.29;26.06
65280;BME280;51878;55.748;48.742;2023-04-08T07:25:48;100551.81;;;9.77;25.26
65280;BME280;51878;55.748;48.742;2023-04-08T07:30:50;100524.28;;;9.99;25.75
65280;BME280;51878;55.748;48.742;2023-04-08T07:35:52;100485.00;;;10.21;24.72
65280;BME280;51878;55.748;48.742;2023-04-08T07:40:56;100535.06;;;10.53;24.61
65280;BME280;51878;55.748;48.742;2023-04-08T07:46:03;100482.28;;;10.73;23.70
65280;BME280;51878;55.748;48.742;2023-04-08T07:51:08;100492.44;;;11.06;23.38
65280;BME280;51878;55.748;48.742;2023-04-08T07:56:13;100523.59;;;11.44;22.88
65280;BME280;51878;55.748;48.742;2023-04-08T08:01:20;100550.31;;;11.82;22.22
65280;BME280;51878;55.748;48.742;2023-04-08T08:06:23;100508.94;;;12.04;22.02
65280;BME280;51878;55.748;48.742;2023-04-08T08:11:25;100374.25;;;11.61;21.34
65280;BME280;51878;55.748;48.742;2023-04-08T08:16:31;100422.44;;;11.83;20.61
65280;BME280;51878;55.748;48.742;2023-04-08T08:21:37;100472.31;;;12.64;20.53
65280;BME280;51878;55.748;48.742;2023-04-08T08:26:43;100466.16;;;12.70;20.15
65280;BME280;51878;55.748;48.742;2023-04-08T08:31:47;100509.16;;;13.22;20.60
65280;BME280;51878;55.748;48.742;2023-04-08T08:36:50;100475.06;;;13.03;20.42
65280;BME280;51878;55.748;48.742;2023-04-08T08:41:53;100508.78;;;13.34;19.89
65280;BME280;51878;55.748;48.742;2023-04-08T08:46:57;100531.44;;;13.66;19.49
65280;BME280;51878;55.748;48.742;2023-04-08T08:51:59;100486.66;;;13.37;19.83
65280;BME280;51878;55.748;48.742;2023-04-08T08:57:02;100496.91;;;13.81;19.51
65280;BME280;51878;55.748;48.742;2023-04-08T09:02:23;100430.66;;;14.33;18.51
65280;BME280;51878;55.748;48.742;2023-04-08T09:07:26;100429.06;;;14.54;17.81
65280;BME280;51878;55.748;48.742;2023-04-08T09:12:29;100483.97;;;15.40;18.05
65280;BME280;51878;55.748;48.742;2023-04-08T09:17:40;100476.81;;;15.75;16.73
65280;BME280;51878;55.748;48.742;2023-04-08T09:22:59;100499.31;;;16.20;16.67
65280;BME280;51878;55.748;48.742;2023-04-08T09:28:01;100429.41;;;16.18;16.48
65280;BME280;51878;55.748;48.742;2023-04-08T09:33:04;100420.97;;;15.69;16.54
65280;BME280;51878;55.748;48.742;2023-04-08T09:38:08;100426.81;;;15.81;16.69
65280;BME280;51878;55.748;48.742;2023-04-08T09:43:12;100468.63;;;16.88;16.82
65280;BME280;51878;55.748;48.742;2023-04-08T09:48:23;100416.09;;;16.78;16.26
65280;BME280;51878;55.748;48.742;2023-04-08T09:53:34;100424.09;;;17.21;16.35
65280;BME280;51878;55.748;48.742;2023-04-08T09:58:51;100460.31;;;17.77;15.94
65280;BME280;51878;55.748;48.742;2023-04-08T10:03:55;100460.53;;;18.49;15.51
65280;BME280;51878;55.748;48.742;2023-04-08T10:08:58;100386.78;;;18.53;15.03
65280;BME280;51878;55.748;48.742;2023-04-08T10:14:03;100437.28;;;18.65;14.25
65280;BME280;51878;55.748;48.742;2023-04-08T10:19:39;100472.34;;;19.35;14.28
65280;BME280;51878;55.748;48.742;2023-04-08T10:35:35;100287.19;;;19.41;13.72
65280;BME280;51878;55.748;48.742;2023-04-08T10:40:41;100388.28;;;20.02;12.88
65280;BME280;51878;55.748;48.742;2023-04-08T10:45:44;100379.84;;;20.22;13.14
65280;BME280;51878;55.748;48.742;2023-04-08T10:56:09;100366.88;;;21.87;11.54
65280;BME280;51878;55.748;48.742;2023-04-08T11:01:14;100418.31;;;22.24;11.53
65280;BME280;51878;55.748;48.742;2023-04-08T11:06:17;100373.25;;;22.35;11.70
65280;BME280;51878;55.748;48.742;2023-04-08T11:11:27;100414.59;;;22.54;11.25
65280;BME280;51878;55.748;48.742;2023-04-08T11:16:30;100387.56;;;22.96;10.43
65280;BME280;51878;55.748;48.742;2023-04-08T11:21:36;100344.75;;;22.46;10.69
65280;BME280;51878;55.748;48.742;2023-04-08T11:26:40;100323.28;;;22.37;10.87
65280;BME280;51878;55.748;48.742;2023-04-08T11:31:42;100416.53;;;22.30;11.22
65280;BME280;51878;55.748;48.742;2023-04-08T11:36:45;100226.31;;;20.97;11.81
65280;BME280;51878;55.748;48.742;2023-04-08T11:41:48;100376.28;;;23.26;11.10
65280;BME280;51878;55.748;48.742;2023-04-08T11:46:51;100402.91;;;24.41;10.54
65280;BME280;51878;55.748;48.742;2023-04-08T11:51:58;100375.38;;;24.56;11.04
65280;BME280;51878;55.748;48.742;2023-04-08T11:57:01;100253.81;;;24.04;10.29
65280;BME280;51878;55.748;48.742;2023-04-08T12:02:03;100384.56;;;24.57;10.30
65280;BME280;51878;55.748;48.742;2023-04-08T12:07:06;100360.38;;;25.45;10.35
65280;BME280;51878;55.748;48.742;2023-04-08T12:12:08;100379.44;;;25.36;10.02
65280;BME280;51878;55.748;48.742;2023-04-08T12:17:10;100328.84;;;25.89;9.91
65280;BME280;51878;55.748;48.742;2023-04-08T12:22:13;100320.03;;;25.70;10.25
65280;BME280;51878;55.748;48.742;2023-04-08T12:27:15;100375.06;;;26.43;9.69
65280;BME280;51878;55.748;48.742;2023-04-08T12:32:17;100371.59;;;24.84;10.23
65280;BME280;51878;55.748;48.742;2023-04-08T12:37:19;100366.38;;;26.34;9.42
65280;BME280;51878;55.748;48.742;2023-04-08T12:42:21;100288.16;;;25.45;9.77
65280;BME280;51878;55.748;48.742;2023-04-08T12:47:24;100281.25;;;26.28;8.92
65280;BME280;51878;55.748;48.742;2023-04-08T12:52:26;100353.72;;;27.22;9.14
65280;BME280;51878;55.748;48.742;2023-04-08T12:57:29;100253.38;;;24.56;10.20
65280;BME280;51878;55.748;48.742;2023-04-08T13:02:32;100333.38;;;25.73;9.58
65280;BME280;51878;55.748;48.742;2023-04-08T13:07:35;100337.09;;;26.21;9.51
65280;BME280;51878;55.748;48.742;2023-04-08T13:12:37;100261.94;;;26.06;9.36
65280;BME280;51878;55.748;48.742;2023-04-08T13:17:40;100273.19;;;26.94;9.13
65280;BME280;51878;55.748;48.742;2023-04-08T13:22:43;100323.59;;;27.18;9.48
65280;BME280;51878;55.748;48.742;2023-04-08T13:27:45;100288.00;;;27.36;9.10
65280;BME280;51878;55.748;48.742;2023-04-08T13:32:47;100316.41;;;28.15;8.88
65280;BME280;51878;55.748;48.742;2023-04-08T13:37:49;100305.22;;;26.39;9.38
65280;BME280;51878;55.748;48.742;2023-04-08T13:42:51;100241.22;;;26.34;9.32
65280;BME280;51878;55.748;48.742;2023-04-08T13:47:53;100299.22;;;26.63;9.07
65280;BME280;51878;55.748;48.742;2023-04-08T13:52:55;100290.47;;;27.17;9.11
65280;BME280;51878;55.748;48.742;2023-04-08T13:57:57;100287.53;;;26.61;9.01
65280;BME280;51878;55.748;48.742;2023-04-08T14:02:59;100228.81;;;25.94;9.80
65280;BME280;51878;55.748;48.742;2023-04-08T14:08:02;100274.81;;;25.42;9.49
65280;BME280;51878;55.748;48.742;2023-04-08T14:13:04;100288.31;;;25.66;10.23
65280;BME280;51878;55.748;48.742;2023-04-08T14:18:06;100234.22;;;25.09;10.53
65280;BME280;51878;55.748;48.742;2023-04-08T14:23:11;100090.03;;;23.78;10.47
65280;BME280;51878;55.748;48.742;2023-04-08T14:28:14;100204.13;;;23.97;10.70
65280;BME280;51878;55.748;48.742;2023-04-08T14:33:16;100285.63;;;24.01;10.92
65280;BME280;51878;55.748;48.742;2023-04-08T14:38:18;100202.78;;;23.44;11.05
65280;BME280;51878;55.748;48.742;2023-04-08T14:43:22;100215.50;;;22.65;11.67
65280;BME280;51878;55.748;48.742;2023-04-08T14:48:24;100291.56;;;22.68;12.04
65280;BME280;51878;55.748;48.742;2023-04-08T14:53:27;100232.41;;;21.41;12.73
65280;BME280;51878;55.748;48.742;2023-04-08T14:58:29;100281.81;;;21.42;12.55
65280;BME280;51878;55.748;48.742;2023-04-08T15:03:31;100293.56;;;20.29;13.25
65280;BME280;51878;55.748;48.742;2023-04-08T15:08:36;100274.59;;;19.27;13.78
65280;BME280;51878;55.748;48.742;2023-04-08T15:13:38;100215.91;;;18.44;13.90
65280;BME280;51878;55.748;48.742;2023-04-08T15:18:40;100165.22;;;17.03;14.61
65280;BME280;51878;55.748;48.742;2023-04-08T15:23:43;100205.25;;;16.09;15.21
65280;BME280;51878;55.748;48.742;2023-04-08T15:28:45;100199.25;;;15.01;15.65
65280;BME280;51878;55.748;48.742;2023-04-08T15:33:47;100285.25;;;14.18;16.79
65280;BME280;51878;55.748;48.742;2023-04-08T15:38:49;100272.13;;;12.93;17.94
65280;BME280;51878;55.748;48.742;2023-04-08T15:43:52;100245.59;;;11.53;19.99
65280;BME280;51878;55.748;48.742;2023-04-08T15:48:55;100159.44;;;10.16;20.24
65280;BME280;51878;55.748;48.742;2023-04-08T15:53:57;100280.22;;;10.19;21.48
65280;BME280;51878;55.748;48.742;2023-04-08T15:58:59;100278.09;;;9.70;21.36
65280;BME280;51878;55.748;48.742;2023-04-08T16:04:03;100169.28;;;8.62;21.79
65280;BME280;51878;55.748;48.742;2023-04-08T16:09:06;100269.63;;;8.77;22.05
65280;BME280;51878;55.748;48.742;2023-04-08T16:14:08;100316.19;;;8.71;22.65
65280;BME280;51878;55.748;48.742;2023-04-08T16:19:11;100274.47;;;8.10;22.12
65280;BME280;51878;55.748;48.742;2023-04-08T16:24:13;100206.78;;;7.56;22.18
65280;BME280;51878;55.748;48.742;2023-04-08T16:29:15;100151.94;;;6.90;22.46
65280;BME280;51878;55.748;48.742;2023-04-08T16:34:17;100251.41;;;7.40;22.77
65280;BME280;51878;55.748;48.742;2023-04-08T16:39:19;100323.38;;;7.59;23.30
65280;BME280;51878;55.748;48.742;2023-04-08T16:44:22;100237.31;;;6.90;23.57
65280;BME280;51878;55.748;48.742;2023-04-08T16:49:24;100229.41;;;6.69;24.17
65280;BME280;51878;55.748;48.742;2023-04-08T16:54:32;100265.97;;;6.81;24.34
65280;BME280;51878;55.748;48.742;2023-04-08T16:59:34;100333.66;;;6.97;25.09
65280;BME280;51878;55.748;48.742;2023-04-08T17:04:36;100215.63;;;6.13;25.65
65280;BME280;51878;55.748;48.742;2023-04-08T17:09:38;100235.00;;;6.07;26.08
65280;BME280;51878;55.748;48.742;2023-04-08T17:14:41;100339.00;;;6.58;26.55
65280;BME280;51878;55.748;48.742;2023-04-08T17:19:43;100279.22;;;6.05;26.93
65280;BME280;51878;55.748;48.742;2023-04-08T17:24:54;100186.59;;;5.36;27.22
65280;BME280;51878;55.748;48.742;2023-04-08T17:29:57;100214.78;;;5.42;27.34
65280;BME280;51878;55.748;48.742;2023-04-08T17:35:02;100294.50;;;5.73;27.68
65280;BME280;51878;55.748;48.742;2023-04-08T17:40:05;100196.88;;;5.00;28.38
65280;BME280;51878;55.748;48.742;2023-04-08T17:45:08;100176.97;;;4.82;28.35
65280;BME280;51878;55.748;48.742;2023-04-08T17:50:10;100256.38;;;5.16;29.05
65280;BME280;51878;55.748;48.742;2023-04-08T17:55:13;100242.88;;;4.86;28.91
65280;BME280;51878;55.748;48.742;2023-04-08T18:00:22;100327.41;;;5.14;29.38
65280;BME280;51878;55.748;48.742;2023-04-08T18:11:06;100237.53;;;4.53;30.23
65280;BME280;51878;55.748;48.742;2023-04-08T18:16:16;100337.47;;;5.01;31.38
65280;BME280;51878;55.748;48.742;2023-04-08T18:21:18;100322.41;;;4.77;29.97
65280;BME280;51878;55.748;48.742;2023-04-08T18:26:22;100299.41;;;4.52;30.68
65280;BME280;51878;55.748;48.742;2023-04-08T18:31:25;100316.25;;;4.54;30.85
65280;BME280;51878;55.748;48.742;2023-04-08T18:36:27;100315.69;;;4.39;31.01
65280;BME280;51878;55.748;48.742;2023-04-08T18:41:31;100259.41;;;3.83;31.78
65280;BME280;51878;55.748;48.742;2023-04-08T18:46:34;100332.66;;;4.28;32.22
65280;BME280;51878;55.748;48.742;2023-04-08T18:51:36;100275.97;;;3.88;31.36
65280;BME280;51878;55.748;48.742;2023-04-08T18:56:42;100113.13;;;2.79;32.16
65280;BME280;51878;55.748;48.742;2023-04-08T19:01:44;100248.56;;;3.50;32.27
65280;BME280;51878;55.748;48.742;2023-04-08T19:06:47;100293.06;;;3.76;32.14
65280;BME280;51878;55.748;48.742;2023-04-08T19:11:49;100322.94;;;3.82;32.40
65280;BME280;51878;55.748;48.742;2023-04-08T19:16:51;100337.31;;;3.81;32.35
65280;BME280;51878;55.748;48.742;2023-04-08T19:21:55;100097.13;;;2.32;33.02
65280;BME280;51878;55.748;48.742;2023-04-08T19:27:00;100314.28;;;3.67;32.66
65280;BME280;51878;55.748;48.742;2023-04-08T19:32:02;100275.16;;;3.54;32.95
65280;BME280;51878;55.748;48.742;2023-04-08T19:37:05;100336.09;;;3.97;32.79
65280;BME280;51878;55.748;48.742;2023-04-08T19:42:08;100237.16;;;3.48;32.56
65280;BME280;51878;55.748;48.742;2023-04-08T19:47:13;100305.75;;;3.96;32.51
65280;BME280;51878;55.748;48.742;2023-04-08T19:52:17;100138.22;;;3.00;33.27
65280;BME280;51878;55.748;48.742;2023-04-08T19:57:21;100334.50;;;4.17;33.51
65280;BME280;51878;55.748;48.742;2023-04-08T20:02:23;100159.28;;;3.05;33.39
65280;BME280;51878;55.748;48.742;2023-04-08T20:07:26;100312.94;;;4.07;33.38
65280;BME280;51878;55.748;48.742;2023-04-08T20:12:28;100110.09;;;2.72;33.44
65280;BME280;51878;55.748;48.742;2023-04-08T20:17:31;100338.03;;;3.94;33.06
65280;BME280;51878;55.748;48.742;2023-04-08T20:22:33;100322.47;;;3.77;33.12
65280;BME280;51878;55.748;48.742;2023-04-08T20:27:39;100185.56;;;3.00;33.35
65280;BME280;51878;55.748;48.742;2023-04-08T20:32:41;100272.34;;;3.66;33.53
65280;BME280;51878;55.748;48.742;2023-04-08T20:37:44;100254.53;;;3.65;32.54
65280;BME280;51878;55.748;48.742;2023-04-08T20:42:48;100231.28;;;3.55;33.01
65280;BME280;51878;55.748;48.742;2023-04-08T20:47:50;100321.44;;;4.12;32.60
65280;BME280;51878;55.748;48.742;2023-04-08T20:52:52;100331.81;;;4.17;32.82
65280;BME280;51878;55.748;48.742;2023-04-08T20:57:55;100273.19;;;3.78;32.22
65280;BME280;51878;55.748;48.742;2023-04-08T21:02:57;100305.25;;;4.02;32.64
65280;BME280;51878;55.748;48.742;2023-04-08T21:08:00;100301.72;;;4.02;32.34
65280;BME280;51878;55.748;48.742;2023-04-08T21:13:02;100259.78;;;3.78;31.94
65280;BME280;51878;55.748;48.742;2023-04-08T21:18:04;100138.44;;;2.97;32.72
65280;BME280;51878;55.748;48.742;2023-04-08T21:23:07;100269.16;;;3.72;32.37
65280;BME280;51878;55.748;48.742;2023-04-08T21:28:09;100331.81;;;4.05;32.29
65280;BME280;51878;55.748;48.742;2023-04-08T21:33:11;100276.13;;;3.75;31.71
65280;BME280;51878;55.748;48.742;2023-04-08T21:38:14;100332.69;;;4.06;32.25
65280;BME280;51878;55.748;48.742;2023-04-08T21:43:16;100300.00;;;3.89;32.59
65280;BME280;51878;55.748;48.742;2023-04-08T21:48:19;100310.00;;;3.99;31.72
65280;BME280;51878;55.748;48.742;2023-04-08T21:53:22;100301.22;;;3.97;31.81
65280;BME280;51878;55.748;48.742;2023-04-08T21:58:24;100290.75;;;3.93;31.32
65280;BME280;51878;55.748;48.742;2023-04-08T22:03:28;100262.94;;;3.72;31.20
65280;BME280;51878;55.748;48.742;2023-04-08T22:08:31;100306.47;;;3.98;31.68
65280;BME280;51878;55.748;48.742;2023-04-08T22:13:33;100339.53;;;4.21;31.65
65280;BME280;51878;55.748;48.742;2023-04-08T22:18:36;100311.34;;;4.04;31.48
65280;BME280;51878;55.748;48.742;2023-04-08T22:23:38;100290.13;;;3.90;31.88
65280;BME280;51878;55.748;48.742;2023-04-08T22:28:42;100271.38;;;3.67;31.68
65280;BME280;51878;55.748;48.742;2023-04-08T22:33:46;100152.19;;;2.93;32.08
65280;BME280;51878;55.748;48.742;2023-04-08T22:38:49;100204.84;;;3.27;31.81
65280;BME280;51878;55.748;48.742;2023-04-08T22:43:51;100305.84;;;3.72;32.17
65280;BME280;51878;55.748;48.742;2023-04-08T22:48:53;100308.53;;;3.72;31.63
65280;BME280;51878;55.748;48.742;2023-04-08T22:53:56;100332.31;;;3.88;32.29
65280;BME280;51878;55.748;48.742;2023-04-08T22:58:58;100270.88;;;3.51;32.12
65280;BME280;51878;55.748;48.742;2023-04-08T23:04:00;100303.06;;;3.62;32.55
65280;BME280;51878;55.748;48.742;2023-04-08T23:09:02;100307.59;;;3.62;32.47
65280;BME280;51878;55.748;48.742;2023-04-08T23:14:04;100302.69;;;3.56;32.49
65280;BME280;51878;55.748;48.742;2023-04-08T23:19:06;100269.41;;;3.36;31.73
65280;BME280;51878;55.748;48.742;2023-04-08T23:24:09;100315.25;;;3.66;32.33
65280;BME280;51878;55.748;48.742;2023-04-08T23:29:11;100244.94;;;3.29;31.95
65280;BME280;51878;55.748;48.742;2023-04-08T23:34:13;100291.09;;;3.44;32.30
65280;BME280;51878;55.748;48.742;2023-04-08T23:39:15;100353.75;;;3.65;32.14
65280;BME280;51878;55.748;48.742;2023-04-08T23:44:17;100264.16;;;3.23;31.90
65280;BME280;51878;55.748;48.742;2023-04-08T23:49:19;100323.28;;;3.55;31.14
65280;BME280;51878;55.748;48.742;2023-04-08T23:54:21;100310.47;;;3.59;31.48
65280;BME280;51878;55.748;48.742;2023-04-08T23:59:23;100296.22;;;3.58;30.41
